sensor_id;sensor_type;location;lat;lon;timestamp;pressure;altitude;pressure_sealevel;temperature;humidity
62333;BME280;48624;49.812;8.562;2022-11-12T00:00:19;102316.56;;;7.15;100.00
62333;BME280;48624;49.812;8.562;2022-11-12T00:02:44;102318.94;;;7.26;100.00
62333;BME280;48624;49.812;8.562;2022-11-12T00:05:09;102314.50;;;7.28;100.00
62333;BME280;48624;49.812;8.562;2022-11-12T00:07:35;102314.31;;;7.34;100.00
62333;BME280;48624;49.812;8.562;2022-11-12T00:10:00;102306.31;;;7.39;100.00
62333;BME280;48624;49.812;8.562;2022-11-12T00:12:26;102309.22;;;7.28;100.00
62333;BME280;48624;49.812;8.562;2022-11-12T00:14:51;102310.28;;;7.19;100.00
62333;BME280;48624;49.812;8.562;2022-11-12T00:17:17;102306.75;;;7.20;100.00
62333;BME280;48624;49.812;8.562;2022-11-12T00:19:42;102309.47;;;7.17;100.00
62333;BME280;48624;49.812;8.562;2022-11-12T00:22:07;102311.31;;;7.13;100.00
62333;BME280;48624;49.812;8.562;2022-11-12T00:24:32;102309.59;;;7.11;100.00
62333;BME280;48624;49.812;8.562;2022-11-12T00:26:58;102308.44;;;7.22;100.00
62333;BME280;48624;49.812;8.562;2022-11-12T00:29:23;102311.09;;;7.22;100.00
62333;BME280;48624;49.812;8.562;2022-11-12T00:31:48;102298.69;;;7.26;100.00
62333;BME280;48624;49.812;8.562;2022-11-12T00:34:14;102296.84;;;7.31;100.00
62333;BME280;48624;49.812;8.562;2022-11-12T00:36:39;102310.81;;;6.97;100.00
62333;BME280;48624;49.812;8.562;2022-11-12T00:39:04;102300.50;;;6.86;100.00
62333;BME280;48624;49.812;8.562;2022-11-12T00:41:29;102299.97;;;7.10;100.00
62333;BME280;48624;49.812;8.562;2022-11-12T00:43:55;102300.94;;;7.05;100.00
62333;BME280;48624;49.812;8.562;2022-11-12T00:46:20;102297.31;;;7.10;100.00
62333;BME280;48624;49.812;8.562;2022-11-12T00:48:45;102294.19;;;6.52;100.00
62333;BME280;48624;49.812;8.562;2022-11-12T00:51:11;102295.25;;;6.45;100.00
62333;BME280;48624;49.812;8.562;2022-11-12T00:53:36;102302.53;;;6.32;100.00
62333;BME280;48624;49.812;8.562;2022-11-12T00:56:05;102299.75;;;6.38;100.00
62333;BME280;48624;49.812;8.562;2022-11-12T00:58:32;102307.31;;;6.56;100.00
62333;BME280;48624;49.812;8.562;2022-11-12T01:01:05;102296.63;;;6.62;100.00
62333;BME280;48624;49.812;8.562;2022-11-12T01:03:31;102304.91;;;6.86;100.00
62333;BME280;48624;49.812;8.562;2022-11-12T01:06:12;102309.09;;;6.94;100.00
62333;BME280;48624;49.812;8.562;2022-11-12T01:08:38;102320.50;;;6.95;100.00
62333;BME280;48624;49.812;8.562;2022-11-12T01:11:07;102313.34;;;7.00;100.00
62333;BME280;48624;49.812;8.562;2022-11-12T01:13:33;102315.13;;;7.00;100.00
62333;BME280;48624;49.812;8.562;2022-11-12T01:16:07;102309.91;;;6.98;100.00
62333;BME280;48624;49.812;8.562;2022-11-12T01:18:33;102309.34;;;7.23;100.00
62333;BME280;48624;49.812;8.562;2022-11-12T01:21:02;102301.66;;;6.74;100.00
62333;BME280;48624;49.812;8.562;2022-11-12T01:23:34;102302.16;;;6.49;100.00
62333;BME280;48624;49.812;8.562;2022-11-12T01:26:10;102303.59;;;6.66;100.00
62333;BME280;48624;49.812;8.562;2022-11-12T01:28:36;102300.75;;;6.75;100.00
62333;BME280;48624;49.812;8.562;2022-11-12T01:31:32;102295.72;;;6.63;100.00
62333;BME280;48624;49.812;8.562;2022-11-12T01:34:01;102300.69;;;6.77;100.00
62333;BME280;48624;49.812;8.562;2022-11-12T01:36:29;102302.69;;;6.67;100.00
62333;BME280;48624;49.812;8.562;2022-11-12T01:38:55;102289.31;;;6.76;100.00
62333;BME280;48624;49.812;8.562;2022-11-12T01:41:23;102306.72;;;6.84;100.00
62333;BME280;48624;49.812;8.562;2022-11-12T01:47:00;102302.50;;;6.75;100.00
62333;BME280;48624;49.812;8.562;2022-11-12T01:49:42;102295.50;;;6.74;100.00
62333;BME280;48624;49.812;8.562;2022-11-12T01:52:16;102294.09;;;6.57;100.00
62333;BME280;48624;49.812;8.562;2022-11-12T01:54:46;102294.53;;;6.37;100.00
62333;BME280;48624;49.812;8.562;2022-11-12T01:57:15;102298.00;;;6.37;100.00
62333;BME280;48624;49.812;8.562;2022-11-12T01:59:44;102304.97;;;6.42;100.00
62333;BME280;48624;49.812;8.562;2022-11-12T02:02:12;102302.34;;;6.42;100.00
62333;BME280;48624;49.812;8.562;2022-11-12T02:04:38;102303.72;;;6.16;100.00
62333;BME280;48624;49.812;8.562;2022-11-12T02:07:05;102298.72;;;6.03;100.00
62333;BME280;48624;49.812;8.562;2022-11-12T02:09:32;102298.72;;;6.03;100.00
62333;BME280;48624;49.812;8.562;2022-11-12T02:11:58;102299.84;;;5.87;100.00
62333;BME280;48624;49.812;8.562;2022-11-12T02:14:24;102300.56;;;5.95;100.00
62333;BME280;48624;49.812;8.562;2022-11-12T02:16:49;102299.13;;;5.78;100.00
62333;BME280;48624;49.812;8.562;2022-11-12T02:19:15;102295.94;;;6.09;100.00
62333;BME280;48624;49.812;8.562;2022-11-12T02:21:41;102295.94;;;6.09;100.00
62333;BME280;48624;49.812;8.562;2022-11-12T02:26:40;102300.00;;;6.26;100.00
62333;BME280;48624;49.812;8.562;2022-11-12T02:29:07;102297.91;;;6.42;100.00
62333;BME280;48624;49.812;8.562;2022-11-12T02:31:33;102305.63;;;6.09;100.00
62333;BME280;48624;49.812;8.562;2022-11-12T02:33:58;102311.41;;;6.27;100.00
62333;BME280;48624;49.812;8.562;2022-11-12T02:36:24;102300.16;;;6.18;100.00
62333;BME280;48624;49.812;8.562;2022-11-12T02:38:49;102303.06;;;6.01;100.00
62333;BME280;48624;49.812;8.562;2022-11-12T02:41:15;102302.22;;;6.01;100.00
62333;BME280;48624;49.812;8.562;2022-11-12T02:43:40;102297.38;;;5.79;100.00
62333;BME280;48624;49.812;8.562;2022-11-12T02:46:06;102291.22;;;5.80;100.00
62333;BME280;48624;49.812;8.562;2022-11-12T02:48:32;102287.78;;;5.75;100.00
62333;BME280;48624;49.812;8.562;2022-11-12T02:50:57;102298.19;;;5.81;100.00
62333;BME280;48624;49.812;8.562;2022-11-12T02:53:22;102298.66;;;6.05;100.00
62333;BME280;48624;49.812;8.562;2022-11-12T02:55:48;102283.59;;;6.11;100.00
62333;BME280;48624;49.812;8.562;2022-11-12T02:58:13;102286.06;;;6.21;100.00
62333;BME280;48624;49.812;8.562;2022-11-12T03:00:38;102293.13;;;6.19;100.00
62333;BME280;48624;49.812;8.562;2022-11-12T03:03:04;102286.28;;;6.10;100.00
62333;BME280;48624;49.812;8.562;2022-11-12T03:05:32;102280.94;;;6.13;100.00
62333;BME280;48624;49.812;8.562;2022-11-12T03:07:59;102283.19;;;5.86;100.00
62333;BME280;48624;49.812;8.562;2022-11-12T03:10:26;102278.25;;;5.67;100.00
62333;BME280;48624;49.812;8.562;2022-11-12T03:12:53;102281.16;;;5.52;100.00
62333;BME280;48624;49.812;8.562;2022-11-12T03:15:19;102284.97;;;5.86;100.00
62333;BME280;48624;49.812;8.562;2022-11-12T03:17:45;102287.34;;;6.00;100.00
62333;BME280;48624;49.812;8.562;2022-11-12T03:20:11;102293.69;;;5.88;100.00
62333;BME280;48624;49.812;8.562;2022-11-12T03:22:37;102279.00;;;5.76;100.00
62333;BME280;48624;49.812;8.562;2022-11-12T03:25:03;102275.88;;;5.53;100.00
62333;BME280;48624;49.812;8.562;2022-11-12T03:27:29;102281.03;;;5.60;100.00
62333;BME280;48624;49.812;8.562;2022-11-12T03:29:55;102270.28;;;5.72;100.00
62333;BME280;48624;49.812;8.562;2022-11-12T03:32:20;102269.19;;;5.86;100.00
62333;BME280;48624;49.812;8.562;2022-11-12T03:34:46;102263.63;;;5.52;100.00
62333;BME280;48624;49.812;8.562;2022-11-12T03:37:11;102258.00;;;5.73;100.00
62333;BME280;48624;49.812;8.562;2022-11-12T03:39:36;102261.50;;;5.73;100.00
62333;BME280;48624;49.812;8.562;2022-11-12T03:42:02;102261.47;;;5.76;100.00
62333;BME280;48624;49.812;8.562;2022-11-12T03:44:27;102258.25;;;5.60;100.00
62333;BME280;48624;49.812;8.562;2022-11-12T03:46:53;102263.59;;;5.55;100.00
62333;BME280;48624;49.812;8.562;2022-11-12T03:49:18;102262.19;;;5.85;100.00
62333;BME280;48624;49.812;8.562;2022-11-12T03:51:43;102261.06;;;5.96;100.00
62333;BME280;48624;49.812;8.562;2022-11-12T03:54:09;102264.44;;;6.06;100.00
62333;BME280;48624;49.812;8.562;2022-11-12T03:56:34;102259.28;;;5.99;100.00
62333;BME280;48624;49.812;8.562;2022-11-12T03:58:59;102275.03;;;6.03;100.00
62333;BME280;48624;49.812;8.562;2022-11-12T04:01:25;102267.63;;;5.75;100.00
62333;BME280;48624;49.812;8.562;2022-11-12T04:03:50;102265.56;;;5.90;100.00
62333;BME280;48624;49.812;8.562;2022-11-12T04:06:15;102264.13;;;5.73;100.00
62333;BME280;48624;49.812;8.562;2022-11-12T04:09:00;102257.75;;;5.87;100.00
62333;BME280;48624;49.812;8.562;2022-11-12T04:11:26;102266.66;;;5.79;100.00
62333;BME280;48624;49.812;8.562;2022-11-12T04:13:51;102261.38;;;5.81;100.00
62333;BME280;48624;49.812;8.562;2022-11-12T04:16:19;102268.88;;;6.01;100.00
62333;BME280;48624;49.812;8.562;2022-11-12T04:19:04;102267.03;;;6.08;100.00
62333;BME280;48624;49.812;8.562;2022-11-12T04:21:52;102266.22;;;6.01;100.00
62333;BME280;48624;49.812;8.562;2022-11-12T04:27:03;102263.66;;;5.98;100.00
62333;BME280;48624;49.812;8.562;2022-11-12T04:29:30;102263.59;;;6.04;100.00
62333;BME280;48624;49.812;8.562;2022-11-12T04:32:14;102264.44;;;6.06;100.00
62333;BME280;48624;49.812;8.562;2022-11-12T04:34:40;102260.53;;;6.24;100.00
62333;BME280;48624;49.812;8.562;2022-11-12T04:37:05;102261.88;;;6.03;100.00
62333;BME280;48624;49.812;8.562;2022-11-12T04:39:32;102251.41;;;5.99;100.00
62333;BME280;48624;49.812;8.562;2022-11-12T04:41:58;102248.56;;;6.09;100.00
62333;BME280;48624;49.812;8.562;2022-11-12T04:44:42;102248.72;;;6.02;100.00
62333;BME280;48624;49.812;8.562;2022-11-12T04:47:28;102252.59;;;5.80;100.00
62333;BME280;48624;49.812;8.562;2022-11-12T04:49:53;102254.88;;;5.52;100.00
62333;BME280;48624;49.812;8.562;2022-11-12T04:52:18;102251.22;;;5.59;100.00
62333;BME280;48624;49.812;8.562;2022-11-12T04:54:44;102253.91;;;5.56;100.00
62333;BME280;48624;49.812;8.562;2022-11-12T04:57:09;102243.97;;;5.72;100.00
62333;BME280;48624;49.812;8.562;2022-11-12T04:59:34;102243.47;;;5.53;100.00
62333;BME280;48624;49.812;8.562;2022-11-12T05:02:00;102257.38;;;5.58;100.00
62333;BME280;48624;49.812;8.562;2022-11-12T05:04:25;102251.09;;;5.67;100.00
62333;BME280;48624;49.812;8.562;2022-11-12T05:06:57;102259.03;;;5.64;100.00
62333;BME280;48624;49.812;8.562;2022-11-12T05:09:24;102261.63;;;5.67;100.00
62333;BME280;48624;49.812;8.562;2022-11-12T05:11:51;102246.25;;;5.91;100.00
62333;BME280;48624;49.812;8.562;2022-11-12T05:14:16;102254.66;;;5.63;100.00
62333;BME280;48624;49.812;8.562;2022-11-12T05:16:41;102255.00;;;5.44;100.00
62333;BME280;48624;49.812;8.562;2022-11-12T05:19:07;102256.13;;;5.79;100.00
62333;BME280;48624;49.812;8.562;2022-11-12T05:21:32;102259.16;;;5.58;100.00
62333;BME280;48624;49.812;8.562;2022-11-12T05:24:16;102264.81;;;5.85;100.00
62333;BME280;48624;49.812;8.562;2022-11-12T05:26:41;102268.94;;;5.98;100.00
62333;BME280;48624;49.812;8.562;2022-11-12T05:29:07;102262.75;;;6.02;100.00
62333;BME280;48624;49.812;8.562;2022-11-12T05:31:33;102260.38;;;5.88;100.00
62333;BME280;48624;49.812;8.562;2022-11-12T05:33:58;102268.47;;;5.76;100.00
62333;BME280;48624;49.812;8.562;2022-11-12T05:36:24;102273.94;;;5.65;100.00
62333;BME280;48624;49.812;8.562;2022-11-12T05:38:49;102276.25;;;5.83;100.00
62333;BME280;48624;49.812;8.562;2022-11-12T05:41:15;102261.91;;;5.99;100.00
62333;BME280;48624;49.812;8.562;2022-11-12T05:43:40;102268.03;;;6.01;100.00
62333;BME280;48624;49.812;8.562;2022-11-12T05:46:06;102264.56;;;5.97;100.00
62333;BME280;48624;49.812;8.562;2022-11-12T05:48:31;102270.44;;;5.64;100.00
62333;BME280;48624;49.812;8.562;2022-11-12T05:50:56;102277.53;;;5.59;100.00
62333;BME280;48624;49.812;8.562;2022-11-12T05:53:22;102272.47;;;5.47;100.00
62333;BME280;48624;49.812;8.562;2022-11-12T05:55:47;102274.28;;;5.45;100.00
62333;BME280;48624;49.812;8.562;2022-11-12T05:58:12;102271.59;;;5.48;100.00
62333;BME280;48624;49.812;8.562;2022-11-12T06:00:38;102278.03;;;5.30;100.00
62333;BME280;48624;49.812;8.562;2022-11-12T06:03:12;102278.84;;;5.33;100.00
62333;BME280;48624;49.812;8.562;2022-11-12T06:05:37;102285.00;;;5.32;100.00
62333;BME280;48624;49.812;8.562;2022-11-12T06:08:04;102286.22;;;5.63;100.00
62333;BME280;48624;49.812;8.562;2022-11-12T06:10:32;102284.66;;;5.52;100.00
62333;BME280;48624;49.812;8.562;2022-11-12T06:12:58;102282.16;;;5.46;100.00
62333;BME280;48624;49.812;8.562;2022-11-12T06:15:24;102284.03;;;5.36;100.00
62333;BME280;48624;49.812;8.562;2022-11-12T06:17:53;102292.97;;;5.26;100.00
62333;BME280;48624;49.812;8.562;2022-11-12T06:20:19;102300.13;;;5.16;100.00
62333;BME280;48624;49.812;8.562;2022-11-12T06:22:44;102288.41;;;5.37;100.00
62333;BME280;48624;49.812;8.562;2022-11-12T06:25:09;102299.44;;;5.58;100.00
62333;BME280;48624;49.812;8.562;2022-11-12T06:27:36;102290.75;;;5.54;100.00
62333;BME280;48624;49.812;8.562;2022-11-12T06:30:03;102283.66;;;5.60;100.00
62333;BME280;48624;49.812;8.562;2022-11-12T06:32:28;102289.56;;;5.74;100.00
62333;BME280;48624;49.812;8.562;2022-11-12T06:34:54;102289.72;;;5.65;100.00
62333;BME280;48624;49.812;8.562;2022-11-12T06:37:19;102296.47;;;5.78;100.00
62333;BME280;48624;49.812;8.562;2022-11-12T06:39:46;102290.66;;;5.61;100.00
62333;BME280;48624;49.812;8.562;2022-11-12T06:42:11;102286.44;;;5.52;100.00
62333;BME280;48624;49.812;8.562;2022-11-12T06:44:37;102283.91;;;5.44;100.00
62333;BME280;48624;49.812;8.562;2022-11-12T06:47:02;102290.88;;;5.47;100.00
62333;BME280;48624;49.812;8.562;2022-11-12T06:49:27;102289.00;;;5.53;100.00
62333;BME280;48624;49.812;8.562;2022-11-12T06:51:53;102291.78;;;5.44;100.00
62333;BME280;48624;49.812;8.562;2022-11-12T06:54:18;102291.56;;;5.60;100.00
62333;BME280;48624;49.812;8.562;2022-11-12T06:56:44;102288.03;;;5.61;100.00
62333;BME280;48624;49.812;8.562;2022-11-12T06:59:09;102282.09;;;5.49;100.00
62333;BME280;48624;49.812;8.562;2022-11-12T07:01:35;102281.69;;;5.19;100.00
62333;BME280;48624;49.812;8.562;2022-11-12T07:04:00;102292.09;;;5.27;100.00
62333;BME280;48624;49.812;8.562;2022-11-12T07:06:26;102297.19;;;5.38;100.00
62333;BME280;48624;49.812;8.562;2022-11-12T07:08:51;102293.66;;;5.37;100.00
62333;BME280;48624;49.812;8.562;2022-11-12T07:11:17;102295.94;;;5.59;100.00
62333;BME280;48624;49.812;8.562;2022-11-12T07:13:44;102302.25;;;5.49;100.00
62333;BME280;48624;49.812;8.562;2022-11-12T07:16:10;102300.56;;;5.46;100.00
62333;BME280;48624;49.812;8.562;2022-11-12T07:18:36;102291.72;;;5.49;100.00
62333;BME280;48624;49.812;8.562;2022-11-12T07:21:05;102287.28;;;5.52;100.00
62333;BME280;48624;49.812;8.562;2022-11-12T07:23:32;102287.34;;;5.48;100.00
62333;BME280;48624;49.812;8.562;2022-11-12T07:26:03;102302.56;;;5.28;100.00
62333;BME280;48624;49.812;8.562;2022-11-12T07:28:29;102313.31;;;5.14;100.00
62333;BME280;48624;49.812;8.562;2022-11-12T07:31:04;102309.00;;;5.09;100.00
62333;BME280;48624;49.812;8.562;2022-11-12T07:33:30;102297.75;;;5.00;100.00
62333;BME280;48624;49.812;8.562;2022-11-12T07:36:04;102308.34;;;4.94;100.00
62333;BME280;48624;49.812;8.562;2022-11-12T07:38:31;102311.84;;;4.92;100.00
62333;BME280;48624;49.812;8.562;2022-11-12T07:41:01;102305.66;;;4.97;100.00
62333;BME280;48624;49.812;8.562;2022-11-12T07:43:29;102308.88;;;5.17;100.00
62333;BME280;48624;49.812;8.562;2022-11-12T07:45:57;102311.06;;;4.86;100.00
62333;BME280;48624;49.812;8.562;2022-11-12T07:48:23;102313.00;;;4.74;100.00
62333;BME280;48624;49.812;8.562;2022-11-12T07:50:48;102309.69;;;5.22;100.00
62333;BME280;48624;49.812;8.562;2022-11-12T07:53:13;102310.63;;;5.18;100.00
62333;BME280;48624;49.812;8.562;2022-11-12T07:55:39;102297.28;;;5.30;100.00
62333;BME280;48624;49.812;8.562;2022-11-12T07:58:04;102302.97;;;5.59;100.00
62333;BME280;48624;49.812;8.562;2022-11-12T08:00:30;102301.63;;;5.34;100.00
62333;BME280;48624;49.812;8.562;2022-11-12T08:02:58;102304.19;;;5.36;100.00
62333;BME280;48624;49.812;8.562;2022-11-12T08:05:24;102303.13;;;5.48;100.00
62333;BME280;48624;49.812;8.562;2022-11-12T08:07:49;102305.69;;;5.52;100.00
62333;BME280;48624;49.812;8.562;2022-11-12T08:10:15;102314.47;;;5.51;100.00
62333;BME280;48624;49.812;8.562;2022-11-12T08:12:40;102299.56;;;5.52;100.00
62333;BME280;48624;49.812;8.562;2022-11-12T08:15:05;102309.97;;;5.58;100.00
62333;BME280;48624;49.812;8.562;2022-11-12T08:17:31;102305.66;;;5.55;100.00
62333;BME280;48624;49.812;8.562;2022-11-12T08:19:59;102310.63;;;5.71;100.00
62333;BME280;48624;49.812;8.562;2022-11-12T08:22:24;102312.53;;;5.63;100.00
62333;BME280;48624;49.812;8.562;2022-11-12T08:24:50;102312.03;;;5.91;100.00
62333;BME280;48624;49.812;8.562;2022-11-12T08:27:15;102307.06;;;5.75;100.00
62333;BME280;48624;49.812;8.562;2022-11-12T08:29:41;102311.38;;;5.79;100.00
62333;BME280;48624;49.812;8.562;2022-11-12T08:32:06;102314.81;;;5.83;100.00
62333;BME280;48624;49.812;8.562;2022-11-12T08:34:31;102309.28;;;5.99;100.00
62333;BME280;48624;49.812;8.562;2022-11-12T08:36:56;102313.72;;;5.95;100.00
62333;BME280;48624;49.812;8.562;2022-11-12T08:39:22;102311.53;;;6.19;100.00
62333;BME280;48624;49.812;8.562;2022-11-12T08:41:47;102310.88;;;6.09;100.00
62333;BME280;48624;49.812;8.562;2022-11-12T08:44:12;102317.72;;;6.16;100.00
62333;BME280;48624;49.812;8.562;2022-11-12T08:46:38;102310.91;;;6.07;100.00
62333;BME280;48624;49.812;8.562;2022-11-12T08:49:03;102312.63;;;6.08;100.00
62333;BME280;48624;49.812;8.562;2022-11-12T08:51:28;102303.44;;;6.31;100.00
62333;BME280;48624;49.812;8.562;2022-11-12T08:53:53;102313.19;;;6.24;100.00
62333;BME280;48624;49.812;8.562;2022-11-12T08:56:19;102318.84;;;6.04;100.00
62333;BME280;48624;49.812;8.562;2022-11-12T08:58:44;102317.69;;;6.19;100.00
62333;BME280;48624;49.812;8.562;2022-11-12T09:01:10;102321.50;;;6.04;100.00
62333;BME280;48624;49.812;8.562;2022-11-12T09:03:35;102319.50;;;6.17;100.00
62333;BME280;48624;49.812;8.562;2022-11-12T09:06:02;102316.09;;;6.10;100.00
62333;BME280;48624;49.812;8.562;2022-11-12T09:08:27;102320.06;;;6.32;100.00
62333;BME280;48624;49.812;8.562;2022-11-12T09:10:53;102320.53;;;6.07;100.00
62333;BME280;48624;49.812;8.562;2022-11-12T09:13:19;102313.97;;;6.31;100.00
62333;BME280;48624;49.812;8.562;2022-11-12T09:15:45;102320.34;;;6.18;100.00
62333;BME280;48624;49.812;8.562;2022-11-12T09:18:13;102317.63;;;6.21;100.00
62333;BME280;48624;49.812;8.562;2022-11-12T09:20:39;102317.44;;;5.85;100.00
62333;BME280;48624;49.812;8.562;2022-11-12T09:23:12;102320.91;;;6.34;100.00
62333;BME280;48624;49.812;8.562;2022-11-12T09:25:39;102311.22;;;6.36;100.00
62333;BME280;48624;49.812;8.562;2022-11-12T09:28:06;102311.34;;;6.30;100.00
62333;BME280;48624;49.812;8.562;2022-11-12T09:30:32;102313.63;;;6.47;100.00
62333;BME280;48624;49.812;8.562;2022-11-12T09:32:58;102314.53;;;6.46;100.00
62333;BME280;48624;49.812;8.562;2022-11-12T09:35:23;102317.47;;;6.30;100.00
62333;BME280;48624;49.812;8.562;2022-11-12T09:37:48;102315.34;;;6.48;100.00
62333;BME280;48624;49.812;8.562;2022-11-12T09:40:18;102309.00;;;6.58;100.00
62333;BME280;48624;49.812;8.562;2022-11-12T09:42:50;102311.91;;;6.46;100.00
62333;BME280;48624;49.812;8.562;2022-11-12T09:45:27;102313.88;;;6.77;100.00
62333;BME280;48624;49.812;8.562;2022-11-12T09:47:57;102307.75;;;6.76;100.00
62333;BME280;48624;49.812;8.562;2022-11-12T09:53:19;102310.34;;;6.37;100.00
62333;BME280;48624;49.812;8.562;2022-11-12T09:55:48;102306.50;;;6.52;100.00
62333;BME280;48624;49.812;8.562;2022-11-12T09:58:16;102311.91;;;6.87;100.00
62333;BME280;48624;49.812;8.562;2022-11-12T10:00:55;102314.63;;;6.84;100.00
62333;BME280;48624;49.812;8.562;2022-11-12T10:03:28;102304.13;;;6.80;100.00
62333;BME280;48624;49.812;8.562;2022-11-12T10:06:08;102300.03;;;7.06;100.00
62333;BME280;48624;49.812;8.562;2022-11-12T10:08:45;102305.22;;;6.72;100.00
62333;BME280;48624;49.812;8.562;2022-11-12T10:14:38;102289.81;;;6.92;100.00
62333;BME280;48624;49.812;8.562;2022-11-12T10:17:11;102282.03;;;6.86;100.00
62333;BME280;48624;49.812;8.562;2022-11-12T10:25:17;102279.38;;;6.88;100.00
62333;BME280;48624;49.812;8.562;2022-11-12T10:27:44;102288.69;;;6.65;100.00
62333;BME280;48624;49.812;8.562;2022-11-12T10:32:43;102284.09;;;7.13;98.70
62333;BME280;48624;49.812;8.562;2022-11-12T10:35:10;102285.53;;;7.26;99.16
62333;BME280;48624;49.812;8.562;2022-11-12T10:43:04;102279.72;;;7.12;99.37
62333;BME280;48624;49.812;8.562;2022-11-12T10:45:30;102269.00;;;7.19;99.91
62333;BME280;48624;49.812;8.562;2022-11-12T10:47:56;102266.44;;;6.77;100.00
62333;BME280;48624;49.812;8.562;2022-11-12T10:50:33;102266.50;;;7.13;100.00
62333;BME280;48624;49.812;8.562;2022-11-12T10:53:05;102265.69;;;7.46;100.00
62333;BME280;48624;49.812;8.562;2022-11-12T10:55:35;102266.66;;;7.76;99.70
62333;BME280;48624;49.812;8.562;2022-11-12T11:00:55;102269.84;;;7.89;97.14
62333;BME280;48624;49.812;8.562;2022-11-12T11:03:33;102262.38;;;7.72;96.92
62333;BME280;48624;49.812;8.562;2022-11-12T11:06:20;102265.78;;;8.09;97.37
62333;BME280;48624;49.812;8.562;2022-11-12T11:08:48;102265.97;;;8.01;95.28
62333;BME280;48624;49.812;8.562;2022-11-12T11:13:47;102253.34;;;7.81;98.06
62333;BME280;48624;49.812;8.562;2022-11-12T11:16:47;102256.28;;;7.70;100.00
62333;BME280;48624;49.812;8.562;2022-11-12T11:19:03;102255.22;;;7.77;97.84
62333;BME280;48624;49.812;8.562;2022-11-12T11:24:11;102247.81;;;7.90;99.66
62333;BME280;48624;49.812;8.562;2022-11-12T11:35:45;102241.47;;;7.98;98.52
62333;BME280;48624;49.812;8.562;2022-11-12T11:40:52;102239.44;;;8.68;95.99
62333;BME280;48624;49.812;8.562;2022-11-12T11:46:34;102235.88;;;8.09;97.56
62333;BME280;48624;49.812;8.562;2022-11-12T11:52:00;102236.75;;;8.39;95.81
62333;BME280;48624;49.812;8.562;2022-11-12T11:55:03;102239.41;;;8.39;97.39
62333;BME280;48624;49.812;8.562;2022-11-12T11:57:44;102230.44;;;8.43;97.58
62333;BME280;48624;49.812;8.562;2022-11-12T12:00:21;102232.81;;;8.23;98.24
62333;BME280;48624;49.812;8.562;2022-11-12T12:07:56;102222.41;;;8.18;98.00
62333;BME280;48624;49.812;8.562;2022-11-12T12:10:29;102215.19;;;8.55;98.59
62333;BME280;48624;49.812;8.562;2022-11-12T12:13:12;102211.88;;;8.46;96.83
62333;BME280;48624;49.812;8.562;2022-11-12T12:15:43;102206.53;;;9.05;95.90
62333;BME280;48624;49.812;8.562;2022-11-12T12:21:03;102206.06;;;8.65;95.95
62333;BME280;48624;49.812;8.562;2022-11-12T12:23:49;102202.22;;;8.76;95.76
62333;BME280;48624;49.812;8.562;2022-11-12T12:26:39;102191.88;;;9.22;92.53
62333;BME280;48624;49.812;8.562;2022-11-12T12:29:16;102194.47;;;8.98;93.78
62333;BME280;48624;49.812;8.562;2022-11-12T12:31:47;102190.44;;;8.86;95.21
62333;BME280;48624;49.812;8.562;2022-11-12T12:34:26;102187.34;;;9.25;91.37
62333;BME280;48624;49.812;8.562;2022-11-12T12:37:02;102182.59;;;9.10;92.32
62333;BME280;48624;49.812;8.562;2022-11-12T12:39:51;102182.81;;;9.04;94.43
62333;BME280;48624;49.812;8.562;2022-11-12T12:42:23;102187.91;;;8.83;94.93
62333;BME280;48624;49.812;8.562;2022-11-12T12:45:01;102177.53;;;9.04;93.36
62333;BME280;48624;49.812;8.562;2022-11-12T12:47:34;102172.25;;;9.29;93.52
62333;BME280;48624;49.812;8.562;2022-11-12T12:50:04;102167.75;;;8.79;94.82
62333;BME280;48624;49.812;8.562;2022-11-12T12:55:40;102169.56;;;9.30;92.09
62333;BME280;48624;49.812;8.562;2022-11-12T12:58:26;102170.97;;;9.41;91.11
62333;BME280;48624;49.812;8.562;2022-11-12T13:01:00;102169.06;;;9.44;91.87
62333;BME280;48624;49.812;8.562;2022-11-12T13:08:38;102160.88;;;9.27;93.05
62333;BME280;48624;49.812;8.562;2022-11-12T13:11:04;102156.41;;;8.75;95.51
62333;BME280;48624;49.812;8.562;2022-11-12T13:13:34;102156.91;;;8.86;94.94
62333;BME280;48624;49.812;8.562;2022-11-12T13:16:00;102157.59;;;8.93;95.11
62333;BME280;48624;49.812;8.562;2022-11-12T13:21:12;102153.63;;;9.32;90.67
62333;BME280;48624;49.812;8.562;2022-11-12T13:23:47;102155.78;;;9.21;92.80
62333;BME280;48624;49.812;8.562;2022-11-12T13:37:47;102142.69;;;9.18;93.37
62333;BME280;48624;49.812;8.562;2022-11-12T13:40:18;102146.19;;;8.91;95.65
62333;BME280;48624;49.812;8.562;2022-11-12T13:42:45;102148.00;;;8.91;95.65
62333;BME280;48624;49.812;8.562;2022-11-12T13:45:18;102132.44;;;8.81;95.24
62333;BME280;48624;49.812;8.562;2022-11-12T13:47:45;102138.09;;;8.96;96.02
62333;BME280;48624;49.812;8.562;2022-11-12T13:50:18;102129.34;;;9.21;93.79
62333;BME280;48624;49.812;8.562;2022-11-12T13:52:45;102125.34;;;9.09;95.04
62333;BME280;48624;49.812;8.562;2022-11-12T13:55:19;102125.81;;;8.95;95.38
62333;BME280;48624;49.812;8.562;2022-11-12T13:57:53;102126.53;;;9.00;94.38
62333;BME280;48624;49.812;8.562;2022-11-12T14:00:28;102122.38;;;9.18;93.58
62333;BME280;48624;49.812;8.562;2022-11-12T14:05:24;102122.31;;;9.20;93.50
62333;BME280;48624;49.812;8.562;2022-11-12T14:11:07;102115.16;;;9.23;92.97
62333;BME280;48624;49.812;8.562;2022-11-12T14:14:10;102114.28;;;8.97;94.54
62333;BME280;48624;49.812;8.562;2022-11-12T14:16:54;102108.94;;;8.99;95.45
62333;BME280;48624;49.812;8.562;2022-11-12T14:22:16;102109.63;;;9.04;94.08
62333;BME280;48624;49.812;8.562;2022-11-12T14:24:43;102115.31;;;8.93;95.18
62333;BME280;48624;49.812;8.562;2022-11-12T14:30:12;102106.44;;;8.40;97.96
62333;BME280;48624;49.812;8.562;2022-11-12T14:32:39;102109.41;;;8.58;98.04
62333;BME280;48624;49.812;8.562;2022-11-12T14:35:19;102108.81;;;8.48;98.66